Time;durP1;ratioP1;P1;durP2;ratioP2;P2;SDS_P1;SDS_P2;PMS_P1;PMS_P2;Temp;Humidity;BMP_temperature;BMP_pressure;BME280_temperature;BME280_humidity;BME280_pressure;Samples;Min_cycle;Max_cycle;Signal;HPM_P1;HPM_P2
2021/09/20 00:02:05;;;;;;;15.23;9.88;;;9.30;99.90;;;;;;5071668;28;20025;-68
2021/09/20 00:04:31;;;;;;;14.57;9.38;;;9.20;99.90;;;;;;5073568;28;20048;-68
2021/09/20 00:06:57;;;;;;;17.52;10.52;;;9.20;99.90;;;;;;5073306;28;20020;-68
2021/09/20 00:09:22;;;;;;;17.67;10.25;;;9.30;99.90;;;;;;5072551;28;20025;-67
2021/09/20 00:11:48;;;;;;;15.60;9.80;;;9.30;99.90;;;;;;5073010;28;20032;-67
2021/09/20 00:14:14;;;;;;;15.10;10.43;;;9.30;99.90;;;;;;5073470;28;20029;-68
2021/09/20 00:16:39;;;;;;;13.90;9.77;;;9.30;99.90;;;;;;5073517;28;20029;-67
2021/09/20 00:19:05;;;;;;;13.95;9.40;;;9.30;99.90;;;;;;5073437;28;20021;-68
2021/09/20 00:21:30;;;;;;;14.68;9.85;;;9.30;99.90;;;;;;5071612;28;20116;-68
2021/09/20 00:23:56;;;;;;;19.05;10.27;;;9.30;99.90;;;;;;5073153;28;20457;-68
2021/09/20 00:26:22;;;;;;;16.38;9.40;;;9.30;99.90;;;;;;5073118;28;20032;-68
2021/09/20 00:28:47;;;;;;;15.48;9.65;;;9.30;99.90;;;;;;5072654;28;20074;-68
2021/09/20 00:31:13;;;;;;;16.00;9.27;;;9.30;99.90;;;;;;5076946;28;20509;-68
2021/09/20 00:33:38;;;;;;;14.45;10.15;;;9.30;99.90;;;;;;5075486;28;20127;-68
2021/09/20 00:36:04;;;;;;;14.98;9.95;;;9.30;99.90;;;;;;5076924;28;20056;-68
2021/09/20 00:38:29;;;;;;;13.85;9.63;;;9.40;99.90;;;;;;5076574;28;20052;-68
2021/09/20 00:40:55;;;;;;;13.23;9.07;;;9.30;99.90;;;;;;5076715;28;20029;-67
2021/09/20 00:43:21;;;;;;;12.93;8.55;;;9.40;99.90;;;;;;5076734;28;20458;-68
2021/09/20 00:45:46;;;;;;;12.73;8.98;;;9.40;99.90;;;;;;5076680;28;20024;-67
2021/09/20 00:48:12;;;;;;;16.67;10.32;;;9.40;99.90;;;;;;5075233;28;20028;-68
2021/09/20 00:50:38;;;;;;;14.65;9.95;;;9.40;99.90;;;;;;5076329;28;20470;-67
2021/09/20 00:53:04;;;;;;;15.00;10.25;;;9.30;99.90;;;;;;5076573;28;20040;-67
2021/09/20 00:55:30;;;;;;;19.10;11.25;;;9.30;99.90;;;;;;5076506;28;20457;-67
2021/09/20 00:57:56;;;;;;;18.17;11.88;;;9.30;99.90;;;;;;5076462;28;20025;-67
2021/09/20 01:00:21;;;;;;;16.42;10.43;;;9.20;99.90;;;;;;5075868;28;20044;-67
2021/09/20 01:02:47;;;;;;;17.27;11.68;;;9.20;99.90;;;;;;5076033;28;20116;-68
2021/09/20 01:05:13;;;;;;;17.63;11.32;;;9.10;99.90;;;;;;5076347;28;20027;-67
2021/09/20 01:07:39;;;;;;;19.35;11.65;;;9.10;99.90;;;;;;5074856;28;20466;-68
2021/09/20 01:10:07;;;;;;;15.13;10.68;;;9.10;99.90;;;;;;5076201;28;20020;-68
2021/09/20 01:12:33;;;;;;;15.30;11.23;;;9.10;99.90;;;;;;5075670;28;20477;-67
2021/09/20 01:14:59;;;;;;;19.90;11.63;;;9.10;99.90;;;;;;5074753;28;20067;-68
2021/09/20 01:17:26;;;;;;;17.42;11.48;;;9.10;99.90;;;;;;5074428;28;20052;-68
2021/09/20 01:19:51;;;;;;;21.38;11.57;;;9.10;99.90;;;;;;5074920;28;20024;-68
2021/09/20 01:22:20;;;;;;;17.88;11.02;;;9.00;99.90;;;;;;5075238;28;20051;-67
2021/09/20 01:24:46;;;;;;;15.18;11.00;;;9.00;99.90;;;;;;5075988;28;20021;-67
2021/09/20 01:27:14;;;;;;;18.30;11.55;;;9.00;99.90;;;;;;5075962;28;20035;-68
2021/09/20 01:29:39;;;;;;;19.00;11.20;;;9.00;99.90;;;;;;5057740;28;20541;-67
2021/09/20 01:32:06;;;;;;;19.55;12.40;;;9.00;99.90;;;;;;5074388;28;20063;-68
2021/09/20 01:34:33;;;;;;;20.65;11.68;;;8.90;99.90;;;;;;5074635;28;20108;-67
2021/09/20 01:36:59;;;;;;;17.20;12.07;;;8.90;99.90;;;;;;5075437;28;20037;-67
2021/09/20 01:39:28;;;;;;;18.00;11.13;;;8.90;99.90;;;;;;5075085;28;20113;-67
2021/09/20 01:41:55;;;;;;;17.35;11.90;;;8.90;99.90;;;;;;5074990;28;20021;-68
2021/09/20 01:44:21;;;;;;;17.17;11.63;;;8.90;99.90;;;;;;5075592;28;20043;-67
2021/09/20 01:46:48;;;;;;;19.52;12.63;;;8.80;99.90;;;;;;5074370;28;20454;-68
2021/09/20 01:49:15;;;;;;;15.93;11.57;;;8.90;99.90;;;;;;5075472;28;20446;-67
2021/09/20 01:51:41;;;;;;;17.63;11.45;;;8.80;99.90;;;;;;5075151;28;20055;-67
2021/09/20 01:54:07;;;;;;;19.02;12.48;;;8.80;99.90;;;;;;5075370;28;20469;-67
2021/09/20 01:56:33;;;;;;;19.60;12.95;;;8.70;99.90;;;;;;5075316;28;20035;-67
2021/09/20 01:58:59;;;;;;;23.23;12.82;;;8.60;99.90;;;;;;5074714;28;20081;-67
2021/09/20 02:01:26;;;;;;;16.83;11.18;;;8.60;99.90;;;;;;5075146;28;20028;-67
2021/09/20 02:03:52;;;;;;;16.05;11.02;;;8.50;99.90;;;;;;5073490;28;20587;-67
2021/09/20 02:06:19;;;;;;;18.85;11.73;;;8.50;99.90;;;;;;5073975;28;20013;-67
2021/09/20 02:08:45;;;;;;;21.98;13.27;;;8.40;99.90;;;;;;5074833;28;20017;-67
2021/09/20 02:11:11;;;;;;;23.13;12.98;;;8.40;99.90;;;;;;5075073;28;20013;-68
2021/09/20 02:13:36;;;;;;;25.00;13.38;;;8.40;99.90;;;;;;5075005;28;20029;-67
2021/09/20 02:16:02;;;;;;;21.40;12.93;;;8.40;99.90;;;;;;5073503;28;20052;-67
2021/09/20 02:18:28;;;;;;;22.58;12.98;;;8.40;99.90;;;;;;5074353;28;20108;-67
2021/09/20 02:20:53;;;;;;;20.77;13.18;;;8.40;99.90;;;;;;5074548;28;20051;-67
2021/09/20 02:23:19;;;;;;;19.60;13.40;;;8.40;99.90;;;;;;5074476;28;20032;-67
2021/09/20 02:25:45;;;;;;;22.50;13.70;;;8.40;99.90;;;;;;5074209;28;20017;-67
2021/09/20 02:28:11;;;;;;;20.30;13.18;;;8.40;99.90;;;;;;5074724;28;20103;-67
2021/09/20 02:30:37;;;;;;;21.40;12.32;;;8.50;99.90;;;;;;5074677;28;20048;-67
2021/09/20 02:33:03;;;;;;;21.75;13.48;;;8.40;99.90;;;;;;5073636;28;20507;-67
2021/09/20 02:35:29;;;;;;;20.85;12.90;;;8.40;99.90;;;;;;5074003;28;20071;-67
2021/09/20 02:37:54;;;;;;;23.38;13.88;;;8.30;99.90;;;;;;5074543;28;20043;-67
2021/09/20 02:40:20;;;;;;;22.65;13.77;;;8.30;99.90;;;;;;5074495;28;20024;-67
2021/09/20 02:42:45;;;;;;;18.35;12.45;;;8.30;99.90;;;;;;5074392;28;20434;-67
2021/09/20 02:45:12;;;;;;;20.73;13.25;;;8.30;99.90;;;;;;5074435;28;20041;-67
2021/09/20 02:47:38;;;;;;;27.63;13.93;;;8.30;99.90;;;;;;5074124;28;20462;-67
2021/09/20 02:50:05;;;;;;;21.05;13.57;;;8.30;99.90;;;;;;5074363;28;20468;-67
2021/09/20 02:52:31;;;;;;;24.80;14.02;;;8.30;99.90;;;;;;5073966;28;20016;-67
2021/09/20 02:54:57;;;;;;;22.55;13.88;;;8.30;99.90;;;;;;5074341;28;20469;-67
2021/09/20 02:57:22;;;;;;;19.60;13.48;;;8.30;99.90;;;;;;5073987;28;20107;-67
2021/09/20 02:59:48;;;;;;;19.50;12.82;;;8.20;99.90;;;;;;5074225;28;20032;-67
2021/09/20 03:02:14;;;;;;;21.33;13.48;;;8.20;99.90;;;;;;5074113;28;20050;-67
2021/09/20 03:04:39;;;;;;;21.88;13.55;;;8.10;99.90;;;;;;5073918;28;20046;-67
2021/09/20 03:07:05;;;;;;;24.42;14.73;;;8.10;99.90;;;;;;5073855;28;20031;-67
2021/09/20 03:09:31;;;;;;;22.52;14.35;;;8.00;99.90;;;;;;5073889;28;20012;-68
2021/09/20 03:11:56;;;;;;;22.50;13.65;;;8.10;99.90;;;;;;5074099;28;20035;-67
2021/09/20 03:14:22;;;;;;;23.30;14.90;;;8.10;99.90;;;;;;5074076;28;20028;-67
2021/09/20 03:16:48;;;;;;;24.20;14.45;;;8.10;99.90;;;;;;5072620;28;20370;-67
2021/09/20 03:19:13;;;;;;;22.02;13.68;;;8.10;99.90;;;;;;5074031;28;20458;-67
2021/09/20 03:21:39;;;;;;;25.33;14.73;;;8.10;99.90;;;;;;5073478;28;20401;-67
2021/09/20 03:24:04;;;;;;;22.10;14.57;;;8.10;99.90;;;;;;5073961;28;20028;-67
2021/09/20 03:26:30;;;;;;;24.17;15.20;;;8.10;99.90;;;;;;5073388;28;20028;-67
2021/09/20 03:28:55;;;;;;;23.45;14.05;;;8.20;99.90;;;;;;5073911;28;20402;-67
2021/09/20 03:31:21;;;;;;;24.98;15.10;;;8.20;99.90;;;;;;5072179;28;20363;-67
2021/09/20 03:33:46;;;;;;;22.17;14.35;;;8.30;99.90;;;;;;5073293;28;20111;-67
2021/09/20 03:36:12;;;;;;;22.77;14.30;;;8.40;99.90;;;;;;5073297;28;20060;-67
2021/09/20 03:38:38;;;;;;;23.67;14.15;;;8.40;99.90;;;;;;5073254;28;20033;-67
2021/09/20 03:41:04;;;;;;;23.55;13.55;;;8.40;99.90;;;;;;5073473;28;20036;-67
2021/09/20 03:43:29;;;;;;;21.25;13.88;;;8.50;99.90;;;;;;5073226;28;20081;-67
2021/09/20 03:45:55;;;;;;;22.05;14.07;;;8.50;99.90;;;;;;5072272;28;20028;-67
2021/09/20 03:48:20;;;;;;;22.30;13.45;;;8.50;99.90;;;;;;5073755;28;20032;-67
2021/09/20 03:50:46;;;;;;;23.75;14.52;;;8.50;99.90;;;;;;5072466;28;20020;-67
2021/09/20 03:53:11;;;;;;;22.70;14.60;;;8.50;99.90;;;;;;5073731;28;20032;-67
2021/09/20 03:55:37;;;;;;;26.17;14.23;;;8.50;99.90;;;;;;5073665;28;20028;-67
2021/09/20 03:58:02;;;;;;;21.92;14.10;;;8.60;99.90;;;;;;5073076;28;20029;-67
2021/09/20 04:00:28;;;;;;;21.65;13.80;;;8.60;99.90;;;;;;5073625;28;20472;-67
2021/09/20 04:02:54;;;;;;;21.58;14.02;;;8.60;99.90;;;;;;5073512;28;20025;-67
2021/09/20 04:05:19;;;;;;;28.50;15.30;;;8.60;99.90;;;;;;5076290;28;20078;-67
2021/09/20 04:07:45;;;;;;;23.65;14.10;;;8.50;99.90;;;;;;5077383;28;20033;-67
2021/09/20 04:10:12;;;;;;;23.42;14.40;;;8.50;99.90;;;;;;5077410;28;20154;-67
2021/09/20 04:12:38;;;;;;;22.65;14.38;;;8.50;99.90;;;;;;5077125;28;20031;-67
2021/09/20 04:15:05;;;;;;;24.08;14.15;;;8.50;99.90;;;;;;5076745;28;20024;-67
2021/09/20 04:17:30;;;;;;;23.95;14.10;;;8.50;99.90;;;;;;5077292;28;20021;-67
2021/09/20 04:19:56;;;;;;;22.02;13.15;;;8.50;99.90;;;;;;5076603;28;20036;-67
2021/09/20 04:22:22;;;;;;;24.05;13.82;;;8.40;99.90;;;;;;5075237;28;20056;-67
2021/09/20 04:24:47;;;;;;;20.70;13.52;;;8.40;99.90;;;;;;5075312;28;20032;-67
2021/09/20 04:27:13;;;;;;;25.33;14.70;;;8.50;99.90;;;;;;5077034;28;20025;-67
2021/09/20 04:29:38;;;;;;;21.17;13.52;;;8.50;99.90;;;;;;5075837;28;20046;-67
2021/09/20 04:32:04;;;;;;;21.80;13.95;;;8.50;99.90;;;;;;5075812;28;20020;-67
2021/09/20 04:34:30;;;;;;;24.73;13.98;;;8.50;99.90;;;;;;5076938;28;20455;-67
2021/09/20 04:36:56;;;;;;;22.33;14.93;;;8.40;99.90;;;;;;5076878;28;20020;-68
2021/09/20 04:39:21;;;;;;;23.05;14.88;;;8.40;99.90;;;;;;5076560;28;20039;-67
2021/09/20 04:41:47;;;;;;;26.55;15.43;;;8.30;99.90;;;;;;5076073;28;20028;-67
2021/09/20 04:44:13;;;;;;;24.70;14.90;;;8.30;99.90;;;;;;5075765;28;20424;-67
2021/09/20 04:46:38;;;;;;;25.42;14.55;;;8.30;99.90;;;;;;5076706;28;20029;-67
2021/09/20 04:49:04;;;;;;;33.65;16.33;;;8.30;99.90;;;;;;5076646;28;20092;-67
2021/09/20 04:51:30;;;;;;;25.80;15.02;;;8.30;99.90;;;;;;5076658;28;20024;-67
2021/09/20 04:53:55;;;;;;;23.83;14.65;;;8.30;99.90;;;;;;5074710;28;20489;-67
2021/09/20 04:56:21;;;;;;;25.85;14.88;;;8.30;99.90;;;;;;5074740;28;20025;-67
2021/09/20 04:58:46;;;;;;;27.55;15.38;;;8.30;99.90;;;;;;5075333;28;20517;-67
2021/09/20 05:01:12;;;;;;;24.45;14.25;;;8.20;99.90;;;;;;5074914;28;20513;-67
2021/09/20 05:03:37;;;;;;;23.60;14.40;;;8.20;99.90;;;;;;5076375;28;20029;-67
2021/09/20 05:06:03;;;;;;;26.63;14.68;;;8.20;99.90;;;;;;5076342;28;20020;-67
2021/09/20 05:08:42;;;;;;;24.95;15.57;;;8.20;99.90;;;;;;5074875;28;20087;-67
2021/09/20 05:11:08;;;;;;;25.25;14.77;;;8.20;99.90;;;;;;5076248;28;20021;-67
2021/09/20 05:13:33;;;;;;;24.45;15.27;;;8.20;99.90;;;;;;5076190;28;20031;-67
2021/09/20 05:15:59;;;;;;;22.77;14.38;;;8.20;99.90;;;;;;5057357;28;20416;-67
2021/09/20 05:18:25;;;;;;;23.75;14.75;;;8.20;99.90;;;;;;5074285;28;20103;-67
2021/09/20 05:20:50;;;;;;;21.92;14.80;;;8.20;99.90;;;;;;5075808;28;20065;-67
2021/09/20 05:23:16;;;;;;;23.92;14.20;;;8.20;99.90;;;;;;5074099;28;20024;-67
2021/09/20 05:25:42;;;;;;;23.60;13.60;;;8.10;99.90;;;;;;5075690;28;20374;-67
2021/09/20 05:28:07;;;;;;;23.08;14.15;;;8.00;99.90;;;;;;5075954;28;20056;-67
2021/09/20 05:30:33;;;;;;;24.98;14.48;;;8.00;99.90;;;;;;5075592;28;20025;-67
2021/09/20 05:32:59;;;;;;;25.05;14.82;;;8.00;99.90;;;;;;5075310;28;20029;-67
2021/09/20 05:35:25;;;;;;;23.30;15.88;;;8.00;99.90;;;;;;5075811;28;20025;-67
2021/09/20 05:37:51;;;;;;;25.88;15.00;;;8.00;99.90;;;;;;5075763;28;20025;-67
2021/09/20 05:40:17;;;;;;;22.88;14.48;;;8.00;99.90;;;;;;5075400;28;20378;-67
2021/09/20 05:42:43;;;;;;;28.27;15.82;;;8.10;99.90;;;;;;5075577;28;20166;-67
2021/09/20 05:45:09;;;;;;;20.65;13.88;;;8.00;99.90;;;;;;5075615;28;20017;-67
2021/09/20 05:47:36;;;;;;;23.60;15.05;;;8.00;99.90;;;;;;5075540;28;20374;-67
2021/09/20 05:50:03;;;;;;;24.65;15.60;;;8.10;99.90;;;;;;5075527;28;20441;-68
2021/09/20 05:52:29;;;;;;;27.58;15.30;;;8.10;99.90;;;;;;5075310;28;20103;-67
2021/09/20 05:54:54;;;;;;;20.75;13.82;;;8.30;99.90;;;;;;5075043;28;20386;-67
2021/09/20 05:57:20;;;;;;;25.05;14.93;;;8.40;99.90;;;;;;5075260;28;20082;-68
2021/09/20 05:59:45;;;;;;;26.42;14.70;;;8.50;99.90;;;;;;5075004;28;20035;-68
2021/09/20 06:02:11;;;;;;;21.83;14.30;;;8.60;99.90;;;;;;5057121;28;20032;-68
2021/09/20 06:04:37;;;;;;;22.63;14.27;;;8.70;99.90;;;;;;5075151;28;20028;-68
2021/09/20 06:07:02;;;;;;;20.35;13.07;;;8.70;99.90;;;;;;5073659;28;20029;-68
2021/09/20 06:09:28;;;;;;;22.08;14.20;;;8.80;99.90;;;;;;5073565;28;20020;-68
2021/09/20 06:11:53;;;;;;;25.13;13.70;;;8.90;99.90;;;;;;5074164;28;20035;-68
2021/09/20 06:14:19;;;;;;;23.52;14.45;;;9.10;99.90;;;;;;5083307;28;20046;-68
2021/09/20 06:16:45;;;;;;;22.20;13.73;;;9.30;99.90;;;;;;5086574;28;20068;-68
2021/09/20 06:19:11;;;;;;;19.63;12.52;;;9.40;99.90;;;;;;5078268;28;20028;-72
2021/09/20 06:21:36;;;;;;;17.98;11.77;;;9.90;99.90;;;;;;5093684;28;20056;-72
2021/09/20 06:24:02;;;;;;;17.50;12.23;;;10.50;99.90;;;;;;5094267;28;20020;-72
2021/09/20 06:26:28;;;;;;;14.65;10.75;;;11.70;99.90;;;;;;5090759;28;20538;-73
2021/09/20 06:28:53;;;;;;;15.13;10.00;;;13.00;99.90;;;;;;5077268;28;20108;-73
2021/09/20 06:31:19;;;;;;;18.42;10.45;;;14.30;99.90;;;;;;5082242;28;20024;-73
2021/09/20 06:33:44;;;;;;;12.10;9.52;;;14.50;99.90;;;;;;5079895;28;20028;-73
2021/09/20 06:36:10;;;;;;;10.68;9.05;;;15.80;99.90;;;;;;5080410;28;20020;-75
2021/09/20 06:38:35;;;;;;;14.00;8.65;;;15.90;99.90;;;;;;5078780;28;20027;-75
2021/09/20 06:41:01;;;;;;;13.55;8.48;;;16.70;99.90;;;;;;5085707;28;20093;-75
2021/09/20 06:43:27;;;;;;;14.55;8.88;;;17.80;99.90;;;;;;5091150;28;20411;-75
2021/09/20 06:45:53;;;;;;;12.20;8.80;;;17.90;99.90;;;;;;5093295;28;20103;-74
2021/09/20 06:48:19;;;;;;;13.75;8.95;;;18.10;99.90;;;;;;5092320;28;20107;-74
2021/09/20 06:50:45;;;;;;;11.88;8.48;;;17.60;99.90;;;;;;5083571;28;20024;-75
2021/09/20 06:53:11;;;;;;;10.80;8.55;;;17.80;99.90;;;;;;5086185;28;20031;-74
2021/09/20 06:55:36;;;;;;;13.90;8.63;;;17.40;99.90;;;;;;5068063;28;20059;-74
2021/09/20 06:58:02;;;;;;;12.75;8.25;;;18.00;99.90;;;;;;5089955;28;20077;-78
2021/09/20 07:00:32;;;;;;;9.15;7.93;;;17.30;99.90;;;;;;5080438;28;20025;-75
2021/09/20 07:02:57;;;;;;;14.57;8.55;;;18.20;99.90;;;;;;5084015;28;20017;-76
2021/09/20 07:05:24;;;;;;;12.77;8.38;;;18.20;99.90;;;;;;5086520;28;20028;-77
2021/09/20 07:07:50;;;;;;;14.73;8.95;;;18.10;99.90;;;;;;5090140;28;20012;-76
2021/09/20 07:10:16;;;;;;;13.88;8.10;;;19.30;99.90;;;;;;5083844;28;20419;-76
2021/09/20 07:12:43;;;;;;;13.68;8.40;;;19.10;99.90;;;;;;5092291;28;20468;-76
2021/09/20 07:15:10;;;;;;;10.32;8.45;;;18.90;99.90;;;;;;5088658;28;20025;-73
2021/09/20 07:17:36;;;;;;;12.68;8.10;;;19.10;99.90;;;;;;5091134;28;20028;-74
2021/09/20 07:20:04;;;;;;;12.35;7.88;;;19.30;99.90;;;;;;5092774;28;20027;-75
2021/09/20 07:22:30;;;;;;;12.10;8.45;;;19.00;99.90;;;;;;5092437;28;20040;-74
2021/09/20 07:24:55;;;;;;;9.35;7.90;;;19.40;99.90;;;;;;5089922;28;20595;-75
2021/09/20 07:27:21;;;;;;;9.82;7.82;;;19.80;99.90;;;;;;5094500;28;20028;-72
2021/09/20 07:29:47;;;;;;;9.05;7.55;;;19.70;99.90;;;;;;5083279;28;20082;-71
2021/09/20 07:32:13;;;;;;;11.63;8.02;;;20.20;99.90;;;;;;5085357;28;20032;-72
2021/09/20 07:34:38;;;;;;;8.68;7.78;;;20.60;99.90;;;;;;5083327;28;20500;-71
2021/09/20 07:37:04;;;;;;;10.02;7.57;;;20.90;99.90;;;;;;5096734;28;20031;-71
2021/09/20 07:39:30;;;;;;;8.93;7.60;;;19.60;99.90;;;;;;5106289;28;20416;-71
2021/09/20 07:41:56;;;;;;;9.30;7.40;;;19.10;99.90;;;;;;5094978;28;20028;-71
2021/09/20 07:44:21;;;;;;;9.20;6.97;;;19.60;99.90;;;;;;5098969;28;20023;-71
2021/09/20 07:46:47;;;;;;;10.43;7.22;;;19.70;99.90;;;;;;5109245;28;20070;-71
2021/09/20 07:49:12;;;;;;;9.55;7.35;;;19.50;99.90;;;;;;5104033;28;20023;-71
2021/09/20 07:51:38;;;;;;;12.98;7.43;;;20.20;99.90;;;;;;5109336;28;20106;-70
2021/09/20 07:54:03;;;;;;;13.95;8.27;;;20.00;99.90;;;;;;5103659;28;20107;-71
2021/09/20 07:56:31;;;;;;;10.43;8.07;;;20.20;99.90;;;;;;5110987;28;20027;-71
2021/09/20 07:58:59;;;;;;;11.13;7.82;;;20.40;99.90;;;;;;5095458;28;20062;-70
2021/09/20 08:01:26;;;;;;;10.15;7.32;;;20.20;99.90;;;;;;5090851;28;20016;-70
2021/09/20 08:03:51;;;;;;;8.68;7.65;;;20.00;99.90;;;;;;5090491;28;20024;-70
2021/09/20 08:06:17;;;;;;;9.60;7.45;;;19.60;99.90;;;;;;5096062;28;20120;-71
2021/09/20 08:08:43;;;;;;;10.48;8.98;;;18.90;99.90;;;;;;5099280;28;20031;-75
2021/09/20 08:11:09;;;;;;;10.55;7.57;;;18.90;99.90;;;;;;5112841;28;20024;-75
2021/09/20 08:13:35;;;;;;;11.30;7.90;;;19.30;99.90;;;;;;5093520;28;20393;-71
2021/09/20 08:16:00;;;;;;;12.43;7.25;;;19.10;99.90;;;;;;5089715;28;20051;-70
2021/09/20 08:18:26;;;;;;;9.32;7.20;;;18.70;99.90;;;;;;5116140;27;20020;-69
2021/09/20 08:20:53;;;;;;;10.75;7.63;;;19.20;99.90;;;;;;5089969;28;20040;-70
2021/09/20 08:23:18;;;;;;;9.07;7.13;;;19.70;99.90;;;;;;5084491;28;20048;-69
2021/09/20 08:25:44;;;;;;;9.23;7.10;;;19.60;99.90;;;;;;5088361;28;20051;-70
2021/09/20 08:28:10;;;;;;;11.40;7.82;;;19.00;99.90;;;;;;5087742;28;20027;-71
2021/09/20 08:30:36;;;;;;;9.90;7.40;;;19.70;99.90;;;;;;5097058;28;20100;-71
2021/09/20 08:33:02;;;;;;;10.65;7.10;;;19.20;99.90;;;;;;5083523;28;20577;-71
2021/09/20 08:35:28;;;;;;;10.38;7.72;;;19.80;99.90;;;;;;5088019;28;20114;-71
2021/09/20 08:37:54;;;;;;;11.52;7.95;;;19.10;99.90;;;;;;5084734;28;20082;-70
2021/09/20 08:40:20;;;;;;;9.75;7.53;;;18.90;99.90;;;;;;5087298;28;20756;-71
2021/09/20 08:42:45;;;;;;;10.93;7.53;;;19.30;99.90;;;;;;5089300;28;20028;-71
2021/09/20 08:45:14;;;;;;;8.93;7.13;;;19.80;99.90;;;;;;5083015;28;20032;-71
2021/09/20 08:47:42;;;;;;;7.97;6.85;;;21.10;99.90;;;;;;5090937;28;20021;-71
2021/09/20 08:50:11;;;;;;;11.27;8.00;;;20.90;99.90;;;;;;5092628;28;20024;-71
2021/09/20 08:52:36;;;;;;;11.50;7.50;;;21.00;99.90;;;;;;5084137;28;20534;-71
2021/09/20 08:55:03;;;;;;;8.73;6.85;;;20.60;99.90;;;;;;5097934;28;20035;-72
2021/09/20 08:57:28;;;;;;;9.73;7.32;;;20.90;99.90;;;;;;5097721;28;20034;-73
2021/09/20 08:59:54;;;;;;;13.20;7.07;;;20.90;99.90;;;;;;5080635;28;20036;-72
2021/09/20 09:02:22;;;;;;;8.68;7.10;;;21.10;99.90;;;;;;5090143;28;20036;-71
2021/09/20 09:04:47;;;;;;;8.68;6.80;;;20.20;99.90;;;;;;5094134;28;20024;-71
2021/09/20 09:07:17;;;;;;;8.20;6.50;;;19.60;99.90;;;;;;5110272;28;20020;-71
2021/09/20 09:09:45;;;;;;;10.95;6.45;;;19.40;99.90;;;;;;5103670;28;20742;-70
2021/09/20 09:12:21;;;;;;;7.63;6.63;;;19.80;99.90;;;;;;5105010;28;20028;-71
2021/09/20 09:14:55;;;;;;;9.90;6.88;;;20.20;99.90;;;;;;5088959;28;20416;-72
2021/09/20 09:17:26;;;;;;;8.63;6.47;;;19.90;99.90;;;;;;5087850;28;20020;-73
2021/09/20 09:19:58;;;;;;;9.80;6.55;;;20.60;99.90;;;;;;5080992;28;20040;-71
2021/09/20 09:22:38;;;;;;;7.57;6.38;;;19.90;99.90;;;;;;5084677;28;20119;-71
2021/09/20 09:25:07;;;;;;;8.75;6.43;;;20.20;99.90;;;;;;5083998;28;20024;-70
2021/09/20 09:27:36;;;;;;;8.07;5.78;;;20.10;99.90;;;;;;5099028;28;20109;-70
2021/09/20 09:30:09;;;;;;;11.43;6.28;;;20.70;99.90;;;;;;5086175;28;20423;-70
2021/09/20 09:32:36;;;;;;;7.25;5.97;;;20.40;99.90;;;;;;5092675;28;20031;-71
2021/09/20 09:35:04;;;;;;;7.18;5.93;;;20.50;99.90;;;;;;5091897;28;20089;-70
2021/09/20 09:37:31;;;;;;;9.70;5.90;;;20.50;99.90;;;;;;5093793;28;20031;-72
2021/09/20 09:40:17;;;;;;;7.18;5.38;;;19.80;99.90;;;;;;5087429;28;20401;-72
2021/09/20 09:42:43;;;;;;;6.13;5.53;;;20.00;99.90;;;;;;5096833;28;20105;-71
2021/09/20 09:45:31;;;;;;;5.88;5.20;;;19.70;99.90;;;;;;5110619;28;20077;-70
2021/09/20 09:48:16;;;;;;;6.00;5.07;;;19.30;99.90;;;;;;5079957;28;20024;-73
2021/09/20 09:50:46;;;;;;;7.57;4.75;;;20.00;99.90;;;;;;5107681;28;20034;-72
2021/09/20 09:53:32;;;;;;;6.38;5.20;;;20.20;99.90;;;;;;5099112;28;20024;-71
2021/09/20 09:56:15;;;;;;;6.47;5.55;;;19.70;99.90;;;;;;5102243;28;20469;-72
2021/09/20 09:58:58;;;;;;;;;;;19.00;99.90;;;;;;5099176;28;20040;-73
2021/09/20 10:04:16;;;;;;;6.53;4.47;;;19.50;99.90;;;;;;5072300;28;20394;-72
2021/09/20 10:06:47;;;;;;;4.93;4.20;;;19.80;99.90;;;;;;5081569;28;20029;-74
2021/09/20 10:09:15;;;;;;;7.50;4.80;;;19.70;99.90;;;;;;5079193;28;20025;-74
2021/09/20 10:11:44;;;;;;;6.32;4.60;;;18.80;99.90;;;;;;5077105;28;20020;-73
2021/09/20 10:14:11;;;;;;;7.95;4.80;;;17.80;99.90;;;;;;5076013;28;20052;-73
2021/09/20 10:16:38;;;;;;;5.80;4.78;;;17.20;99.90;;;;;;5085892;28;20046;-74
2021/09/20 10:19:04;;;;;;;5.97;4.90;;;17.10;99.90;;;;;;5063504;28;20024;-74
2021/09/20 10:21:30;;;;;;;6.05;4.40;;;17.00;99.90;;;;;;5067844;28;20460;-74
2021/09/20 10:23:58;;;;;;;6.47;4.43;;;16.80;99.90;;;;;;5065168;28;20040;-74
2021/09/20 10:26:25;;;;;;;6.03;3.92;;;16.60;99.90;;;;;;5068277;28;20025;-74
2021/09/20 10:28:53;;;;;;;4.45;4.00;;;16.60;99.90;;;;;;5068327;28;20013;-74
2021/09/20 10:31:19;;;;;;;5.43;3.78;;;16.70;99.90;;;;;;5069083;28;20023;-74
2021/09/20 10:33:45;;;;;;;6.93;3.72;;;16.60;99.90;;;;;;5069485;28;20032;-73
2021/09/20 10:36:11;;;;;;;7.18;3.55;;;16.20;99.90;;;;;;5060779;28;20025;-73
2021/09/20 10:38:36;;;;;;;5.05;4.00;;;16.40;99.90;;;;;;5068220;28;20070;-72
2021/09/20 10:41:11;;;;;;;7.55;4.40;;;16.20;99.90;;;;;;5067155;28;20032;-72
2021/09/20 10:43:39;;;;;;;6.47;3.55;;;16.10;99.90;;;;;;5056748;28;20060;-71
2021/09/20 10:46:20;;;;;;;4.78;3.67;;;16.10;99.90;;;;;;5060510;28;20066;-69
2021/09/20 10:48:49;;;;;;;4.88;3.72;;;16.00;99.90;;;;;;5058609;28;20496;-70
2021/09/20 10:51:19;;;;;;;5.15;3.80;;;15.90;99.90;;;;;;5068051;28;20143;-69
2021/09/20 10:53:46;;;;;;;5.78;3.83;;;15.90;99.90;;;;;;5069306;28;20501;-69
2021/09/20 10:56:17;;;;;;;5.32;3.63;;;15.90;99.90;;;;;;5057033;28;20095;-71
2021/09/20 11:01:31;;;;;;;4.80;3.53;;;16.30;99.90;;;;;;5089689;28;20368;-67
2021/09/20 11:06:38;;;;;;;4.90;2.97;;;16.40;99.90;;;;;;5095519;27;20363;-70
2021/09/20 11:11:45;;;;;;;4.35;3.50;;;16.30;99.90;;;;;;5092542;27;20402;-71
2021/09/20 11:14:31;;;;;;;4.25;3.20;;;16.50;99.90;;;;;;5111435;28;20024;-71
2021/09/20 11:17:01;;;;;;;5.70;3.53;;;16.60;99.90;;;;;;5102710;28;20030;-71
2021/09/20 11:25:02;;;;;;;6.13;3.53;;;16.70;99.90;;;;;;5086227;27;20366;-70
2021/09/20 11:27:40;;;;;;;12.57;3.97;;;16.50;99.90;;;;;;5088087;28;20020;-71
2021/09/20 11:30:09;;;;;;;4.22;3.30;;;16.80;99.90;;;;;;5088787;28;20330;-71
2021/09/20 11:32:44;;;;;;;7.32;3.67;;;16.90;99.90;;;;;;5087208;28;20024;-71
2021/09/20 11:35:10;;;;;;;5.15;3.50;;;17.20;99.90;;;;;;5088687;28;20023;-70
2021/09/20 11:37:36;;;;;;;6.00;3.70;;;17.10;99.90;;;;;;5088860;28;20085;-71
2021/09/20 11:40:20;;;;;;;5.63;3.80;;;16.90;99.90;;;;;;5090383;28;20497;-70
2021/09/20 11:42:49;;;;;;;5.32;3.30;;;17.00;99.90;;;;;;5089803;28;20035;-71
2021/09/20 11:48:06;;;;;;;5.03;3.33;;;17.10;99.90;;;;;;5058766;28;20861;-71
2021/09/20 11:50:36;;;;;;;5.68;3.25;;;17.10;99.90;;;;;;5068808;28;20086;-71
2021/09/20 11:53:05;;;;;;;4.03;3.08;;;16.60;99.90;;;;;;5045450;28;20083;-71
2021/09/20 11:55:34;;;;;;;4.50;3.38;;;16.40;99.90;;;;;;5050688;28;20080;-72
2021/09/20 11:58:05;;;;;;;4.75;3.10;;;16.50;99.90;;;;;;5049915;28;20060;-71
2021/09/20 12:00:34;;;;;;;4.82;3.03;;;16.70;99.90;;;;;;5054693;28;20364;-70
2021/09/20 12:03:02;;;;;;;4.45;3.45;;;16.80;99.90;;;;;;5048800;28;20117;-73
2021/09/20 12:05:31;;;;;;;3.92;3.35;;;16.70;99.90;;;;;;5058600;28;20025;-71
2021/09/20 12:08:00;;;;;;;4.47;3.38;;;16.70;99.90;;;;;;5050476;28;20112;-72
2021/09/20 12:10:27;;;;;;;4.97;3.60;;;16.70;99.90;;;;;;5048624;28;20031;-71
2021/09/20 12:12:56;;;;;;;4.88;3.13;;;16.60;99.90;;;;;;5050100;28;20025;-72
2021/09/20 12:15:27;;;;;;;4.82;3.22;;;16.60;99.90;;;;;;5049963;28;20017;-72
2021/09/20 12:17:57;;;;;;;6.75;3.33;;;16.60;99.90;;;;;;5048391;28;20053;-71
2021/09/20 12:20:27;;;;;;;4.30;3.28;;;16.70;99.90;;;;;;5053625;28;20028;-70
2021/09/20 12:22:53;;;;;;;7.35;3.05;;;16.80;99.90;;;;;;5057299;28;20084;-72
2021/09/20 12:25:42;;;;;;;3.67;3.05;;;16.70;99.90;;;;;;5049971;28;20025;-71
2021/09/20 12:28:17;;;;;;;4.47;3.10;;;16.50;99.90;;;;;;5049183;28;20048;-70
2021/09/20 12:33:31;;;;;;;5.25;3.42;;;16.80;99.90;;;;;;5090676;27;20368;-71
2021/09/20 12:35:57;;;;;;;7.10;3.60;;;16.80;99.90;;;;;;5089375;28;20057;-72
2021/09/20 12:38:38;;;;;;;4.88;3.30;;;16.90;99.90;;;;;;5089120;28;20122;-73
2021/09/20 12:41:18;;;;;;;5.30;3.45;;;17.10;99.90;;;;;;5081691;28;20021;-70
2021/09/20 12:43:50;;;;;;;5.38;3.40;;;17.10;99.90;;;;;;5074806;28;20052;-72
2021/09/20 12:46:20;;;;;;;5.40;3.40;;;17.30;99.90;;;;;;5074222;28;20047;-71
2021/09/20 12:48:51;;;;;;;4.13;3.17;;;17.20;99.90;;;;;;5084197;28;20024;-71
2021/09/20 12:51:17;;;;;;;5.18;3.47;;;17.30;99.90;;;;;;5080871;28;20082;-72
2021/09/20 12:53:48;;;;;;;5.10;3.28;;;17.10;99.90;;;;;;5081979;28;20458;-71
2021/09/20 12:56:15;;;;;;;7.45;3.78;;;17.20;99.90;;;;;;5090052;28;20028;-69
2021/09/20 12:58:47;;;;;;;3.78;3.17;;;17.30;99.90;;;;;;5091430;28;20024;-72
2021/09/20 13:01:23;;;;;;;5.07;3.15;;;17.00;99.90;;;;;;5078733;28;20029;-70
2021/09/20 13:03:56;;;;;;;3.38;2.90;;;17.00;99.90;;;;;;5081678;28;20099;-69